Nelliston, New York
Current Conditions -  °F | °C
As of 11:15 AM on Thursday 30 Oct 2014 (Local Time) from KNY0 Reporting Station
Scattered Clouds Scattered Clouds  
Wind Chill: 41°   Ceiling: Unl
Heat Index: 45°   Visibility: 10mi
Dew Point: 36°   Wind: 7mph
Humidity: 71%   Direction: 290°WNW
Pressure: 29.99"   Gusts: NA
Location:  42.93°N, 74.61°W
Report Text: KNY0 301515Z AUTO 29006KT 10SM SCT032 SCT042 07/02 A2999 RMK AO2 T00720023
Loading
Personal Weather Stations






























Interactive Weather Map
Tropical Storm Tracking
New forecast layout! Learn more

10-Day Weather Forecast

Advertisements
Track Severe Weather on mobile